London Corbin Airport Magee Field
KLOZ : now visible

Airfield :











YOU CAN JOIN US ON...

 
LOGIN :

Register | Disclaimer

   EN    FR    IT 

 









Legend :    VFR   Marginal VFR   IFR   Intensive IFR   Very Intensive IFR
Visi :
Ceiling :
>= 8 km
>= 3000ft
5 to 8 km
1000 to 3000 ft
1500m to 5 km
500 to 1000 ft
800 to 1500m
200 to 500 ft
< 800m
< 200 ft
Symbols :   Thunderstorms  Fog  Heavy snow  Heavy precipitations  Wind > 20 kt






- Airport Elevation : 1212 ft


KLOZ - London Corbin Magee Field

CURRENT METAR :
  • 280719Z AUTO 32007KT 6SM BR SCT007 BKN011 OVC016 07/07 A2985 RMK AO2 RAE08 P0000 T00720067 $

EXPIRED METARs :
  • 280710Z AUTO 32004KT 4SM BR SCT007 OVC016 07/07 A2985 RMK AO2 RAE08 P0000 T00720067 $
  • 280653Z AUTO 32006KT 3SM -RA BR SCT005 OVC014 07/07 A2984 RMK AO2 RAB18 SLP102 P0004 T00720067 $
  • 280645Z AUTO 33008KT 3SM -RA BR SCT005 BKN014 OVC020 07/07 A2984 RMK AO2 RAB18 P0004 T00720067 $
  • 280604Z AUTO 23005KT 10SM BKN013 OVC022 09/08 A2983 RMK AO2 T00890078 $
  • 280453Z AUTO 24008KT 10SM OVC018 09/07 A2982 RMK AO2 SLP094 T00940072 401780094 $

TAF KLOZ
Valid from the 28 at 06:00 until the 29 at 06:00 UTC


280538Z 2806/2906 26009KT P6SM VCSH SCT008 OVC015
FM280800 28009KT P6SM OVC015
FM281200 VRB03KT P6SM BKN010
FM281630 VRB05KT P6SM BKN030
FM281800 VRB05KT P6SM BKN050
KZID FIR / North America



MET'MAP, your aeronautical weather chart ! - Copyright ORBIFLY December 2007 - Disclaimer

ORBIFLY MET'MAP TEAM :

Programming & Development : Alexandra Zaïnal
Original concept : Baudouin d'Aumeries
Technical & hardware support : Manuel Goepfert
Assistance : Marc-Olivier Méhu




SOURCES & CREDITS :

   NOAA       Earth
Advisory